This is the latest recevied weather packets stored in our database for station/object WZ9ZZZ-1. If no packets are shown the sender has not sent any weather packets the latest 10 day(s).
| Time | Temp. | Humidity | Pressure | Rain* | Wind** | Luminosity | Snow |
|---|---|---|---|---|---|---|---|
| 1777929151 | 25.56° C | 68% | 1016.6 hPa | 0 mm | - | 262 W/m² | - |
| 1777928849 | 25.56° C | 67% | 1016.4 hPa | 0 mm | - | 209 W/m² | - |
| 1777928545 | 25.56° C | 68% | 1016.6 hPa | 0 mm | - | 203 W/m² | - |
| 1777928242 | 25.56° C | 67% | 1016.7 hPa | 0 mm | - | 239 W/m² | - |
| 1777927940 | 26.11° C | 67% | 1016.4 hPa | 0 mm | - | 262 W/m² | - |
| 1777927638 | 26.11° C | 66% | 1016.5 hPa | 0 mm | - | 250 W/m² | - |
| 1777927336 | 26.67° C | 65% | 1016.9 hPa | 0 mm | - | 258 W/m² | - |
| 1777927035 | 26.67° C | 65% | 1016.9 hPa | 0 mm | - | 296 W/m² | - |
| 1777926732 | 27.78° C | 62% | 1016.8 hPa | 0 mm | - | 309 W/m² | - |
| 1777926432 | 26.11° C | 65% | 1017.2 hPa | 0 mm | - | 921 W/m² | - |
| 1777926130 | 27.22° C | 64% | 1017.2 hPa | 0 mm | - | 286 W/m² | - |
| 1777925827 | 26.67° C | 65% | 1017 hPa | 0 mm | - | 675 W/m² | - |
| 1777925524 | 26.11° C | 66% | 1017 hPa | 0 mm | - | 897 W/m² | - |
| 1777925221 | 27.22° C | 63% | 1017.1 hPa | 0 mm | - | 258 W/m² | - |
| 1777924917 | 27.78° C | 62% | 1017.2 hPa | 0 mm | - | 812 W/m² | - |
| 1777924613 | 26.67° C | 63% | 1017.3 hPa | 0 mm | - | 398 W/m² | - |
| 1777924310 | 26.67° C | 64% | 1017.5 hPa | 0 mm | - | 736 W/m² | - |
| 1777924007 | 27.22° C | 62% | 1017.4 hPa | 0 mm | - | 783 W/m² | - |
| 1777923702 | 26.67° C | 63% | 1017.6 hPa | 0 mm | - | 744 W/m² | - |
| 1777923399 | 26.67° C | 64% | 1017.3 hPa | 0 mm | - | 377 W/m² | - |
| 1777923097 | 27.78° C | 63% | 1017.7 hPa | 0 mm | - | 869 W/m² | - |
| 1777922795 | 27.22° C | 63% | 1017.7 hPa | 0 mm | - | 327 W/m² | - |
| 1777922493 | 26.67° C | 64% | 1017.6 hPa | 0 mm | - | 291 W/m² | - |
| 1777922191 | 26.11° C | 65% | 1017.7 hPa | 0 mm | - | 537 W/m² | - |
| 1777921887 | 26.67° C | 63% | 1017.6 hPa | 0 mm | - | 260 W/m² | - |
* Rain latest hour (hover to see other rain measurements)
** Current wind speed in m/s (hover to see current wind gust speed)